Friday, January 19, 2018, 1:57 AM GMT
Back to Local

CYCX, Gagetown Can-Mil

Location: , , Canada Lat: 45.833
Local Time: 1:57 AM GMT ( 1:57 GMT) Lon: -66.433
Time Zone: GMT Elev: 167 ft

Show me the last for .
Show Decoded

2018-01-19 01:00 METAR CYCX 190100Z 15006KT 15SM BKN034 M10/M12 A2984 RMK SC6 DA-2800FT FROIN
                 SLP107 =
2018-01-19 00:00 METAR CYCX 190000Z 25005KT 15SM SCT094 M06/M09 A2981 RMK AC3 DA-2297FT FROIN
                 SLP099 =
2018-01-18 23:00 METAR CYCX 182300Z 25005KT 15SM FEW094 M08/M10 A2980 RMK AC2 DA-2444FT FROIN
                 SLP094 =
2018-01-18 22:00 METAR CYCX 182200Z 23004KT 15SM FEW085 M06/M09 A2979 RMK AC1 DA-2181FT FROIN
                 SLP091 =
2018-01-18 21:00 METAR CYCX 182100Z 24003KT 15SM FEW031 FEW200 M04/M09 A2979 RMK SC1CI1 DA-2013FT
                 SLP091 =
2018-01-18 20:00 METAR CYCX 182000Z 27007KT 15SM BKN022 M04/M09 A2979 RMK SC6 DA-1909FT SLP091 =
2018-01-18 19:34 METAR CYCX 181934Z 31004KT 250V320 15SM BKN022 M03/M08 A2978 RMK SC6 DA-1792FT
                 SLP089 =
2018-01-18 19:00 METAR CYCX 181900Z 27004KT 15SM SCT022 M04/M08 A2978 RMK SC4 DA-1884FT SLP088 =
2018-01-18 18:00 METAR CYCX 181800Z 27005KT 15SM SCT020 BKN068 M04/M09 A2979 RMK SC4AC2 DA-1974FT
                 SLP092 =
2018-01-18 17:00 METAR CYCX 181700Z 27008KT 230V300 15SM FEW020 SCT068 M05/M10 A2981 RMK SC1AC2
                 DA-2065FT SLP098 =
2018-01-18 16:20 METAR CYCX 181620Z 25007KT 15SM FEW020 M05/M10 A2983 RMK SC2 DA-2140FT PRESFR
                 SLP104 =
2018-01-18 16:00 METAR CYCX 181600Z 27006KT 230V290 12SM -SHSN BKN015 M05/M09 A2985 RMK SC6
                 DA-2174FT CIG VRB 11-19 SLP112 =
2018-01-18 15:45 METAR CYCX 181545Z 29007KT 240V300 12SM -SHSN BKN015 M05/M09 A2986 RMK SC7
                 DA-2212FT CIG VRB 11-19 SLP115 =
2018-01-18 15:00 METAR CYCX 181500Z 29005KT 15SM BKN015 M05/M09 A2987 RMK SC7 DA-2224FT CIG VRB
                 11-19 SLP117 =
2018-01-18 14:35 METAR CYCX 181435Z 28008KT 250V310 12SM -SHSN BKN010 BKN035 M05/M08 A2988 RMK
                 SC6SC1 DA-2179FT PCPN VRY LGT SLP120 =
2018-01-18 14:27 METAR CYCX 181427Z 27006KT 15SM BKN012 BKN035 M05/M07 A2988 RMK SC5SC2 DA-2151FT
                 SLP120 =
2018-01-18 14:00 METAR CYCX 181400Z 24004KT 210V270 15SM FEW016 SCT035 M05/M07 A2987 RMK SC2SC2
                 DA-2139FT SLP118 =
2018-01-18 13:00 METAR CYCX 181300Z 25004KT 15SM SCT016 BKN028 M06/M07 A2987 RMK SC3SC4 DA-2243FT
                 SLP117 =
2018-01-18 12:00 METAR CYCX 181200Z 24005KT 15SM SCT014 OVC030 M06/M07 A2987 RMK SC4SC4 DA-2243FT
                 SLP119 =
2018-01-18 11:00 METAR CYCX 181100Z 25002KT 15SM SCT014 OVC030 M06/M07 A2987 RMK SC4SC4 DA-2282FT
                 SLP118 =
2018-01-18 10:22 METAR CYCX 181022Z 24003KT 12SM -SN SCT014 OVC040 M06/M07 A2988 RMK SC4SC4
                 DA-2307FT SLP120 =
2018-01-18 10:00 METAR CYCX 181000Z 27005KT 15SM BKN018 OVC040 M06/M08 A2987 RMK SC7SC1 DA-2322FT
                 SLP119 =
2018-01-18 09:00 METAR CYCX 180900Z 26004KT 15SM BKN015 OVC035 M06/M08 A2989 RMK SC6SC2 DA-2373FT
                 SLP126 =
2018-01-18 08:00 METAR CYCX 180800Z 00000KT 10SM -SN BKN013 OVC035 M06/M08 A2991 RMK SC6SC2
                 DA-2396FT SLP131 =
2018-01-18 07:00 METAR CYCX 180700Z 28002KT 10SM -SN BKN035 BKN075 M07/M08 A2993 RMK SC5AC2
                 DA-2486FT SLP140 =
2018-01-18 06:00 METAR CYCX 180600Z 00000KT 12SM -SN BKN075 M06/M08 A2993 RMK AC6 DA-2432FT
                 SLP138 =
2018-01-18 05:21 METAR CYCX 180521Z 31002KT 6SM -SN OVC050 M05/M07 A2995 RMK SC8 DA-2321FT SLP145
                 =
2018-01-18 05:00 METAR CYCX 180500Z 34002KT 3SM -SN OVC012 M05/M07 A2997 RMK SN5ST3 DA-2331FT
                 /S07/ SLP151 =
2018-01-18 04:50 METAR CYCX 180450Z 33002KT 2 1/4SM -SN OVC012 M05/M07 A2997 RMK SN6ST2 DA-2305FT
                 SLP153 =
2018-01-18 04:00 METAR CYCX 180400Z 35002KT 3/4SM -SN VV007 M05/M06 A2998 RMK SN8 /S05/ SLP157 =
2018-01-18 03:00 METAR CYCX 180300Z 34003KT 3/4SM -SN VV008 M05/M06 A3001 RMK SN8 DA-2311FT /S05/
                 SLP166 =
2018-01-18 02:00 METAR CYCX 180200Z 36003KT 5/8SM -SN VV010 M05/M06 A3003 RMK SN8 DA-2348FT /S03/
                 SLP174 =

Support USWX by starting your Amazon purchase here.